Time;durP1;ratioP1;P1;durP2;ratioP2;P2;SDS_P1;SDS_P2;PMS_P1;PMS_P2;Temp;Humidity;BMP_temperature;BMP_pressure;BME280_temperature;BME280_humidity;BME280_pressure;Samples;Min_cycle;Max_cycle;Signal;HPM_P1;HPM_P2
2023/11/19 00:00:15;;;;;;;1999.90;999.90;;;;;;;3.56;66.97;95833.38;5116805;28;20092;-64
2023/11/19 00:02:42;;;;;;;1999.90;999.90;;;;;;;3.48;68.17;95843.88;5116619;28;20102;-61
2023/11/19 00:05:11;;;;;;;1999.90;999.90;;;;;;;3.39;68.33;95856.13;5116584;28;20050;-64
2023/11/19 00:07:41;;;;;;;1999.90;999.90;;;;;;;3.40;68.52;95851.78;5116534;28;20070;-65
2023/11/19 00:10:10;;;;;;;1999.90;999.90;;;;;;;3.43;68.84;95830.22;5116608;28;20044;-62
2023/11/19 00:12:39;;;;;;;1999.90;999.90;;;;;;;3.32;68.82;95851.97;5116602;28;20051;-61
2023/11/19 00:15:11;;;;;;;1999.90;999.90;;;;;;;3.22;70.26;95858.22;5116673;28;20081;-64
2023/11/19 00:17:40;;;;;;;1999.90;999.90;;;;;;;3.25;70.18;95864.16;5116451;28;20055;-63
2023/11/19 00:20:08;;;;;;;1999.90;999.90;;;;;;;3.28;70.49;95855.47;5116396;28;20150;-64
2023/11/19 00:22:36;;;;;;;1999.90;999.90;;;;;;;3.32;70.18;95864.03;5116185;28;20050;-64
2023/11/19 00:25:06;;;;;;;1999.90;999.90;;;;;;;3.29;70.33;95872.72;5115561;28;20073;-63
2023/11/19 00:27:33;;;;;;;1999.90;999.90;;;;;;;3.31;69.70;95876.09;5116348;28;20122;-62
2023/11/19 00:30:00;;;;;;;1999.90;999.90;;;;;;;3.23;70.11;95880.59;5116345;28;20047;-64
2023/11/19 00:32:28;;;;;;;1999.90;999.90;;;;;;;3.27;70.32;95884.81;5116178;28;20040;-64
2023/11/19 00:34:55;;;;;;;1999.90;999.90;;;;;;;3.23;70.31;95889.19;5116045;28;20107;-65
2023/11/19 00:37:22;;;;;;;1999.90;999.90;;;;;;;3.25;70.67;95884.84;5116049;28;20048;-61
2023/11/19 00:39:49;;;;;;;1999.90;999.90;;;;;;;3.25;71.01;95892.59;5115937;28;20058;-66
2023/11/19 00:42:17;;;;;;;1999.90;999.90;;;;;;;3.20;71.68;95886.66;5115851;28;20100;-66
2023/11/19 00:44:45;;;;;;;1999.90;999.90;;;;;;;3.21;72.55;95890.94;5115880;28;20135;-64
2023/11/19 00:47:12;;;;;;;1999.90;999.90;;;;;;;3.27;71.24;95888.25;5115842;28;20542;-66
2023/11/19 00:49:40;;;;;;;1999.90;999.90;;;;;;;3.30;70.41;95897.66;5115690;28;20051;-64
2023/11/19 00:52:07;;;;;;;1999.90;999.90;;;;;;;3.33;70.96;95892.44;5115719;28;20047;-61
2023/11/19 00:54:34;;;;;;;1999.90;999.90;;;;;;;3.38;71.81;95889.78;5115650;28;20096;-65
2023/11/19 00:57:02;;;;;;;1999.90;999.90;;;;;;;3.38;71.39;95900.97;5115547;28;20131;-63
2023/11/19 00:59:30;;;;;;;1999.90;999.90;;;;;;;3.45;70.08;95895.66;5115678;28;20108;-64
2023/11/19 01:01:58;;;;;;;1999.90;999.90;;;;;;;3.47;69.81;95899.06;5115470;28;20413;-65
2023/11/19 01:04:25;;;;;;;1999.90;999.90;;;;;;;3.53;70.30;95898.97;5115642;28;20043;-66
2023/11/19 01:06:54;;;;;;;1999.90;999.90;;;;;;;3.44;69.92;95906.91;5115248;28;20055;-64
2023/11/19 01:09:21;;;;;;;1999.90;999.90;;;;;;;3.54;69.97;95904.09;5115535;28;20047;-65
2023/11/19 01:11:48;;;;;;;1999.90;999.90;;;;;;;3.58;69.72;95904.03;5115573;28;20082;-64
2023/11/19 01:14:17;;;;;;;1999.90;999.90;;;;;;;3.59;69.27;95906.59;5115370;28;20127;-64
2023/11/19 01:16:46;;;;;;;1999.90;999.90;;;;;;;3.62;69.40;95906.53;5115261;28;20044;-64
2023/11/19 01:19:13;;;;;;;1999.90;999.90;;;;;;;3.60;68.23;95902.25;5115424;28;20044;-62
2023/11/19 01:21:41;;;;;;;1999.90;999.90;;;;;;;3.59;67.95;95906.59;5115203;28;20420;-64
2023/11/19 01:24:09;;;;;;;1999.90;999.90;;;;;;;3.67;67.48;95901.25;5115202;28;20044;-63
2023/11/19 01:26:37;;;;;;;1999.90;999.90;;;;;;;3.72;67.99;95909.78;5115169;28;20039;-62
2023/11/19 01:29:04;;;;;;;1999.90;999.90;;;;;;;3.76;67.24;95910.53;5115041;28;20050;-66
2023/11/19 01:31:31;;;;;;;1999.90;999.90;;;;;;;3.64;67.22;95917.69;5114965;28;20048;-65
2023/11/19 01:34:00;;;;;;;1999.90;999.90;;;;;;;3.66;67.37;95912.47;5114886;28;20134;-64
2023/11/19 01:36:28;;;;;;;1999.90;999.90;;;;;;;3.72;67.24;95912.38;5113803;28;20108;-64
2023/11/19 01:38:55;;;;;;;1999.90;999.90;;;;;;;3.76;66.70;95918.31;5114818;28;20082;-64
2023/11/19 01:41:22;;;;;;;1999.90;999.90;;;;;;;3.75;66.57;95904.53;5114787;28;20047;-64
2023/11/19 01:43:49;;;;;;;1999.90;999.90;;;;;;;3.75;66.47;95914.88;5114687;28;20078;-65
2023/11/19 01:46:16;;;;;;;1999.90;999.90;;;;;;;3.80;66.18;95907.03;5114705;28;20068;-61
2023/11/19 01:48:46;;;;;;;1999.90;999.90;;;;;;;3.85;66.15;95912.94;5114653;28;20105;-64
2023/11/19 01:51:16;;;;;;;1999.90;999.90;;;;;;;3.79;65.69;95910.47;5114658;28;20121;-62
2023/11/19 01:53:44;;;;;;;1999.90;999.90;;;;;;;3.84;65.21;95911.25;5114542;28;20055;-64
2023/11/19 01:56:15;;;;;;;1999.90;999.90;;;;;;;3.84;65.26;95919.00;5114461;28;20055;-64
2023/11/19 01:58:45;;;;;;;1999.90;999.90;;;;;;;3.88;64.34;95907.72;5114449;28;20472;-65
2023/11/19 02:01:13;;;;;;;1999.90;999.90;;;;;;;3.88;64.01;95905.13;5114536;28;20078;-66
2023/11/19 02:03:40;;;;;;;1999.90;999.90;;;;;;;3.92;64.22;95911.09;5114288;28;20051;-65
2023/11/19 02:06:10;;;;;;;1999.90;999.90;;;;;;;3.96;64.26;95909.28;5114077;28;20562;-63
2023/11/19 02:08:39;;;;;;;1999.90;999.90;;;;;;;3.99;63.71;95891.94;5114322;28;20433;-64
2023/11/19 02:11:07;;;;;;;1999.90;999.90;;;;;;;4.01;63.12;95903.09;5114318;28;20062;-64
2023/11/19 02:13:36;;;;;;;1999.90;999.90;;;;;;;4.02;62.88;95901.38;5114227;28;20044;-66
2023/11/19 02:16:08;;;;;;;1999.90;999.90;;;;;;;4.06;62.86;95897.00;5114299;28;20421;-66
2023/11/19 02:18:35;;;;;;;1999.90;999.90;;;;;;;4.10;62.45;95893.44;5114138;28;20054;-63
2023/11/19 02:21:02;;;;;;;1999.90;999.90;;;;;;;4.12;61.60;95899.47;5114190;28;20083;-66
2023/11/19 02:23:31;;;;;;;1999.90;999.90;;;;;;;4.03;61.88;95895.31;5113885;28;20048;-65
2023/11/19 02:26:11;;;;;;;1999.90;999.90;;;;;;;4.14;61.66;95908.03;5114012;28;20090;-62
2023/11/19 02:28:40;;;;;;;1999.90;999.90;;;;;;;4.16;60.54;95912.28;5113974;28;20055;-66
2023/11/19 02:31:09;;;;;;;1999.90;999.90;;;;;;;4.16;61.03;95921.78;5113968;28;20059;-65
2023/11/19 02:33:36;;;;;;;1999.90;999.90;;;;;;;4.17;61.34;95902.78;5113882;28;20043;-66
2023/11/19 02:36:04;;;;;;;1999.90;999.90;;;;;;;4.13;61.09;95901.97;5113862;28;20040;-65
2023/11/19 02:38:32;;;;;;;1999.90;999.90;;;;;;;4.22;60.24;95906.13;5113777;28;20079;-63
2023/11/19 02:41:02;;;;;;;1999.90;999.90;;;;;;;4.24;60.54;95904.34;5113794;28;20083;-65
2023/11/19 02:43:31;;;;;;;1999.90;999.90;;;;;;;4.25;60.25;95902.59;5113745;28;20051;-63
2023/11/19 02:46:01;;;;;;;1999.90;999.90;;;;;;;4.21;60.03;95912.16;5113697;28;20047;-64
2023/11/19 02:48:28;;;;;;;1999.90;999.90;;;;;;;4.26;60.16;95917.25;5113376;28;20043;-66
2023/11/19 02:50:58;;;;;;;1999.90;999.90;;;;;;;4.19;60.69;95918.28;5113575;28;20489;-66
2023/11/19 02:53:27;;;;;;;1999.90;999.90;;;;;;;4.19;59.67;95928.63;5113572;28;20051;-65
2023/11/19 02:56:00;;;;;;;1999.90;999.90;;;;;;;4.16;60.24;95927.81;5113586;28;20068;-64
2023/11/19 02:58:28;;;;;;;1999.90;999.90;;;;;;;4.15;60.17;95940.78;5113539;28;20040;-62
2023/11/19 03:00:57;;;;;;;1999.90;999.90;;;;;;;4.19;59.84;95936.41;5113570;28;20044;-65
2023/11/19 03:03:30;;;;;;;1999.90;999.90;;;;;;;4.23;59.81;95946.66;5113448;28;20048;-63
2023/11/19 03:05:57;;;;;;;1999.90;999.90;;;;;;;4.18;59.55;95948.47;5113314;28;20140;-65
2023/11/19 03:08:25;;;;;;;1999.90;999.90;;;;;;;4.26;60.46;95928.47;5113517;28;20131;-64
2023/11/19 03:10:53;;;;;;;1999.90;999.90;;;;;;;4.23;59.65;95931.13;5113443;28;20048;-63
2023/11/19 03:13:21;;;;;;;1999.90;999.90;;;;;;;4.22;59.72;95934.59;5113620;28;20103;-62
2023/11/19 03:15:48;;;;;;;1999.90;999.90;;;;;;;4.23;59.60;95928.53;5113524;28;20104;-65
2023/11/19 03:18:16;;;;;;;1999.90;999.90;;;;;;;4.26;59.72;95943.13;5113426;28;20050;-62
2023/11/19 03:20:44;;;;;;;1999.90;999.90;;;;;;;4.25;59.42;95941.44;5113335;28;20390;-63
2023/11/19 03:23:12;;;;;;;1999.90;999.90;;;;;;;4.27;59.55;95939.66;5113251;28;20056;-62
2023/11/19 03:25:39;;;;;;;1999.90;999.90;;;;;;;4.31;59.40;95951.66;5113351;28;20055;-65
2023/11/19 03:28:06;;;;;;;1999.90;999.90;;;;;;;4.32;59.68;95944.72;5113356;28;20130;-66
2023/11/19 03:30:34;;;;;;;1999.90;999.90;;;;;;;4.24;59.72;95945.75;5113251;28;20055;-65
2023/11/19 03:33:01;;;;;;;1999.90;999.90;;;;;;;4.28;59.37;95951.75;5113220;28;20147;-63
2023/11/19 03:35:29;;;;;;;1999.90;999.90;;;;;;;4.23;59.71;95940.63;5113227;28;20044;-61
2023/11/19 03:37:58;;;;;;;1999.90;999.90;;;;;;;4.23;59.81;95950.97;5113159;28;20056;-63
2023/11/19 03:40:25;;;;;;;1999.90;999.90;;;;;;;4.23;59.82;95957.00;5113176;28;20043;-66
2023/11/19 03:42:52;;;;;;;1999.90;999.90;;;;;;;4.27;59.33;95960.38;5113272;28;20048;-64
2023/11/19 03:45:19;;;;;;;1999.90;999.90;;;;;;;4.31;59.03;95964.63;5113197;28;20083;-61
2023/11/19 03:47:46;;;;;;;1999.90;999.90;;;;;;;4.27;58.70;95969.00;5113077;28;20047;-64
2023/11/19 03:50:15;;;;;;;1999.90;999.90;;;;;;;4.16;58.72;95982.16;5113136;28;20046;-61
2023/11/19 03:52:43;;;;;;;1999.90;999.90;;;;;;;4.14;58.99;95980.50;5113085;28;20052;-65
2023/11/19 03:55:12;;;;;;;1999.90;999.90;;;;;;;4.12;59.12;95977.13;5113123;28;20153;-65
2023/11/19 03:57:39;;;;;;;1999.90;999.90;;;;;;;4.09;59.44;95975.44;5113037;28;20047;-63
2023/11/19 04:00:10;;;;;;;1999.90;999.90;;;;;;;4.10;59.49;95965.94;5115684;28;20083;-62
2023/11/19 04:02:37;;;;;;;1999.90;999.90;;;;;;;4.08;59.56;95960.78;5116709;28;20047;-63
2023/11/19 04:05:05;;;;;;;1999.90;999.90;;;;;;;4.04;59.11;95974.69;5116894;28;20047;-64
2023/11/19 04:07:32;;;;;;;1999.90;999.90;;;;;;;4.05;59.48;95986.72;5116364;28;20048;-64
2023/11/19 04:10:00;;;;;;;1999.90;999.90;;;;;;;4.06;59.56;95983.25;5116732;28;20044;-66
2023/11/19 04:12:28;;;;;;;1999.90;999.90;;;;;;;4.07;59.90;95997.91;5116666;27;20143;-64
2023/11/19 04:14:56;;;;;;;1999.90;999.90;;;;;;;4.11;59.60;96002.13;5116583;28;20082;-66
2023/11/19 04:17:24;;;;;;;1999.90;999.90;;;;;;;4.10;60.03;95997.84;5116639;28;20073;-65
2023/11/19 04:19:51;;;;;;;1999.90;999.90;;;;;;;4.12;59.33;95995.25;5116485;28;20154;-63
2023/11/19 04:22:18;;;;;;;1999.90;999.90;;;;;;;4.16;58.93;96002.06;5116348;28;20044;-64
2023/11/19 04:24:45;;;;;;;1999.90;999.90;;;;;;;4.09;59.11;96009.06;5116296;28;20082;-61
2023/11/19 04:27:12;;;;;;;1999.90;999.90;;;;;;;4.11;59.02;96001.28;5116282;28;20043;-63
2023/11/19 04:29:41;;;;;;;1999.90;999.90;;;;;;;4.12;59.03;96019.38;5116348;28;20047;-64
2023/11/19 04:32:09;;;;;;;1999.90;999.90;;;;;;;4.09;59.29;96023.78;5116143;28;20048;-66
2023/11/19 04:34:37;;;;;;;1999.90;999.90;;;;;;;4.15;58.94;96010.69;5116201;28;20097;-64
2023/11/19 04:37:05;;;;;;;1999.90;999.90;;;;;;;4.12;59.18;96024.56;5116063;28;20051;-65
2023/11/19 04:39:32;;;;;;;1999.90;999.90;;;;;;;4.14;59.21;96027.97;5116022;28;20090;-64
2023/11/19 04:41:59;;;;;;;1999.90;999.90;;;;;;;4.12;58.54;96034.91;5115962;28;20122;-63
2023/11/19 04:44:27;;;;;;;1999.90;999.90;;;;;;;4.18;58.75;96033.91;5116016;28;20079;-64
2023/11/19 04:46:56;;;;;;;1999.90;999.90;;;;;;;4.19;58.27;96042.56;5115965;28;20468;-62
2023/11/19 04:49:23;;;;;;;1999.90;999.90;;;;;;;4.24;58.43;96038.97;5115984;28;20048;-64
2023/11/19 04:51:51;;;;;;;1999.90;999.90;;;;;;;4.21;58.00;96036.44;5115798;27;20071;-64
2023/11/19 04:54:18;;;;;;;1999.90;999.90;;;;;;;4.22;58.36;96032.13;5115783;28;20066;-62
2023/11/19 04:56:47;;;;;;;1999.90;999.90;;;;;;;4.11;59.06;96047.88;5115822;28;20040;-64
2023/11/19 04:59:15;;;;;;;1999.90;999.90;;;;;;;4.13;58.64;96046.97;5115567;28;20574;-62
2023/11/19 05:01:43;;;;;;;1999.90;999.90;;;;;;;4.12;58.77;96053.03;5115762;28;20051;-62
2023/11/19 05:04:11;;;;;;;1999.90;999.90;;;;;;;4.04;59.35;96057.53;5115577;28;20496;-65
2023/11/19 05:06:38;;;;;;;1999.90;999.90;;;;;;;4.06;59.06;96065.25;5115364;28;20066;-65
2023/11/19 05:09:07;;;;;;;1999.90;999.90;;;;;;;4.08;59.24;96076.41;5115609;28;20112;-65
2023/11/19 05:11:35;;;;;;;1999.90;999.90;;;;;;;4.07;59.25;96072.13;5115205;28;20134;-63
2023/11/19 05:14:05;;;;;;;1999.90;999.90;;;;;;;4.10;59.39;96072.94;5115424;28;20058;-63
2023/11/19 05:16:32;;;;;;;1999.90;999.90;;;;;;;4.10;59.60;96077.25;5115392;28;20561;-65
2023/11/19 05:18:59;;;;;;;1999.90;999.90;;;;;;;4.10;59.33;96077.25;5115450;28;20043;-63
2023/11/19 05:21:28;;;;;;;1999.90;999.90;;;;;;;4.03;59.71;96087.72;5115316;28;20051;-63
2023/11/19 05:23:55;;;;;;;1999.90;999.90;;;;;;;4.07;59.46;96074.72;5115147;28;20489;-63
2023/11/19 05:26:24;;;;;;;1999.90;999.90;;;;;;;4.07;59.80;96078.16;5115299;28;20083;-63
2023/11/19 05:28:51;;;;;;;1999.90;999.90;;;;;;;4.06;59.31;96094.56;5115116;28;20134;-61
2023/11/19 05:31:19;;;;;;;1999.90;999.90;;;;;;;4.03;59.44;96108.41;5115023;28;20101;-65
2023/11/19 05:33:46;;;;;;;1999.90;999.90;;;;;;;4.03;59.93;96105.84;5115060;28;20051;-63
2023/11/19 05:36:14;;;;;;;1999.90;999.90;;;;;;;3.92;59.33;96103.44;5114783;28;20530;-61
2023/11/19 05:38:44;;;;;;;1999.90;999.90;;;;;;;3.94;59.17;96112.94;5115172;28;20126;-63
2023/11/19 05:41:12;;;;;;;1999.90;999.90;;;;;;;3.92;59.68;96120.72;5114964;28;20052;-65
2023/11/19 05:43:40;;;;;;;1999.90;999.90;;;;;;;3.91;59.53;96121.59;5114643;28;20051;-64
2023/11/19 05:46:08;;;;;;;1999.90;999.90;;;;;;;3.88;60.21;96126.81;5114777;28;20489;-62
2023/11/19 05:48:36;;;;;;;1999.90;999.90;;;;;;;3.92;59.73;96124.16;5114839;28;20053;-63
2023/11/19 05:51:03;;;;;;;1999.90;999.90;;;;;;;3.88;60.32;96121.63;5114686;28;20131;-61
2023/11/19 05:53:30;;;;;;;1999.90;999.90;;;;;;;3.92;60.38;96124.16;5114715;28;20092;-62
2023/11/19 05:56:02;;;;;;;1999.90;999.90;;;;;;;3.96;60.31;96131.84;5114592;28;20050;-63
2023/11/19 05:58:29;;;;;;;1999.90;999.90;;;;;;;3.87;60.44;96127.69;5114649;28;20054;-63
2023/11/19 06:00:56;;;;;;;1999.90;999.90;;;;;;;3.83;60.64;96139.00;5114449;28;20069;-65
2023/11/19 06:03:24;;;;;;;1999.90;999.90;;;;;;;3.91;60.42;96143.16;5114366;28;20044;-63
2023/11/19 06:05:52;;;;;;;1999.90;999.90;;;;;;;3.90;60.05;96143.19;5114063;28;20550;-65
2023/11/19 06:08:20;;;;;;;1999.90;999.90;;;;;;;3.91;60.09;96134.53;5114369;28;20065;-65
2023/11/19 06:10:50;;;;;;;1999.90;999.90;;;;;;;3.94;60.23;96134.47;5114380;28;20445;-62
2023/11/19 06:13:19;;;;;;;1999.90;999.90;;;;;;;4.02;60.41;96139.50;5114385;28;20050;-64
2023/11/19 06:15:47;;;;;;;1999.90;999.90;;;;;;;4.01;59.87;96141.25;5114179;28;20047;-64
2023/11/19 06:18:15;;;;;;;1999.90;999.90;;;;;;;4.08;59.31;96135.97;5113973;28;20051;-62
2023/11/19 06:20:42;;;;;;;1999.90;999.90;;;;;;;4.00;59.42;96134.38;5114154;28;20051;-64
2023/11/19 06:23:10;;;;;;;1999.90;999.90;;;;;;;4.03;59.24;96142.06;5113446;28;20126;-61
2023/11/19 06:25:38;;;;;;;1999.90;999.90;;;;;;;4.06;59.48;96151.50;5113985;28;20571;-63
2023/11/19 06:28:05;;;;;;;1999.90;999.90;;;;;;;4.15;58.23;96147.91;5113870;28;20048;-61
2023/11/19 06:30:34;;;;;;;1999.90;999.90;;;;;;;4.15;59.14;96150.47;5113974;28;20051;-61
2023/11/19 06:33:01;;;;;;;1999.90;999.90;;;;;;;4.19;58.48;96161.66;5113944;28;20055;-65
2023/11/19 06:35:35;;;;;;;1999.90;999.90;;;;;;;4.25;58.32;96167.56;5113826;28;20085;-64
2023/11/19 06:38:03;;;;;;;1999.90;999.90;;;;;;;4.36;58.00;96164.78;5113885;28;20051;-65
2023/11/19 06:40:30;;;;;;;1999.90;999.90;;;;;;;4.45;58.10;96173.25;5113872;28;20051;-63
2023/11/19 06:42:57;;;;;;;1999.90;999.90;;;;;;;4.48;57.82;96173.22;5113716;28;20070;-63
2023/11/19 06:45:24;;;;;;;1999.90;999.90;;;;;;;4.54;56.96;96165.28;5113694;28;20047;-62
2023/11/19 06:47:53;;;;;;;1999.90;999.90;;;;;;;4.57;56.93;96160.03;5113653;28;20047;-63
2023/11/19 06:50:20;;;;;;;1999.90;999.90;;;;;;;4.58;57.43;96171.28;5113710;27;20073;-63
2023/11/19 06:52:47;;;;;;;1999.90;999.90;;;;;;;4.59;57.09;96171.25;5113637;28;20048;-62
2023/11/19 06:55:15;;;;;;;1999.90;999.90;;;;;;;4.72;57.08;96168.41;5113607;28;20060;-63
2023/11/19 06:57:42;;;;;;;1999.90;999.90;;;;;;;4.80;56.55;96185.50;5113556;28;20054;-63
2023/11/19 07:00:11;;;;;;;1999.90;999.90;;;;;;;4.87;56.83;96198.31;5113694;28;20043;-62
2023/11/19 07:02:39;;;;;;;1999.90;999.90;;;;;;;4.91;56.04;96182.66;5113511;28;20074;-63
2023/11/19 07:05:09;;;;;;;1999.90;999.90;;;;;;;4.95;55.60;96200.75;5113460;28;20138;-62
2023/11/19 07:07:36;;;;;;;1999.90;999.90;;;;;;;4.97;55.88;96186.88;5113627;28;20073;-61
2023/11/19 07:10:06;;;;;;;1999.90;999.90;;;;;;;5.00;55.35;96183.38;5113332;28;20454;-62
2023/11/19 07:12:35;;;;;;;1999.90;999.90;;;;;;;4.98;55.28;96186.00;5113502;28;20131;-60
2023/11/19 07:15:03;;;;;;;1999.90;999.90;;;;;;;5.02;55.64;96182.44;5113524;28;20044;-65
2023/11/19 07:17:32;;;;;;;1999.90;999.90;;;;;;;5.21;55.37;96174.25;5113342;28;20062;-64
2023/11/19 07:20:00;;;;;;;1999.90;999.90;;;;;;;6.61;52.25;96182.94;5113292;28;20052;-62
2023/11/19 07:22:30;;;;;;;1999.90;999.90;;;;;;;8.95;47.18;96180.72;5113302;28;20079;-63
2023/11/19 07:24:58;;;;;;;1999.90;999.90;;;;;;;11.45;41.89;96187.81;5113360;28;20043;-63
2023/11/19 07:27:26;;;;;;;1999.90;999.90;;;;;;;12.67;38.35;96200.28;5113272;28;20048;-66
2023/11/19 07:29:54;;;;;;;1999.90;999.90;;;;;;;12.62;37.33;96205.75;5113325;28;20044;-63
2023/11/19 07:32:26;;;;;;;1999.90;999.90;;;;;;;13.53;36.79;96215.03;5113256;28;20055;-62
2023/11/19 07:34:54;;;;;;;1999.90;999.90;;;;;;;13.31;35.33;96217.94;5117259;28;20557;-65
2023/11/19 07:37:23;;;;;;;1999.90;999.90;;;;;;;13.73;35.09;96216.53;5117267;28;20043;-65
2023/11/19 07:39:56;;;;;;;1999.90;999.90;;;;;;;13.93;34.78;96204.03;5117211;28;20071;-64
2023/11/19 07:42:24;;;;;;;1999.90;999.90;;;;;;;14.48;34.01;96200.94;5117411;28;20043;-65
2023/11/19 07:44:54;;;;;;;1999.90;999.90;;;;;;;15.22;33.45;96215.84;5117119;28;20104;-62
2023/11/19 07:47:23;;;;;;;1999.90;999.90;;;;;;;15.67;31.50;96210.44;5117117;28;20051;-66
2023/11/19 07:49:51;;;;;;;1999.90;999.90;;;;;;;15.57;31.64;96227.78;5117040;28;20044;-64
2023/11/19 07:52:22;;;;;;;1999.90;999.90;;;;;;;15.39;31.57;96223.56;5117066;28;20075;-63
2023/11/19 07:54:49;;;;;;;;;;;;;;;16.33;30.58;96222.94;5117488;28;20439;-64
2023/11/19 07:57:18;;;;;;;1999.90;999.90;;;;;;;17.42;29.14;96238.53;5116790;28;19973;-63
2023/11/19 07:59:46;;;;;;;1999.90;999.90;;;;;;;17.96;27.93;96247.06;5116797;28;20048;-65
2023/11/19 08:02:14;;;;;;;1999.90;999.90;;;;;;;17.28;28.11;96260.66;5116894;28;20396;-66
2023/11/19 08:04:45;;;;;;;1999.90;999.90;;;;;;;16.12;30.10;96257.72;5116653;28;20059;-65
2023/11/19 08:07:15;;;;;;;1999.90;999.90;;;;;;;15.90;30.29;96239.75;5116488;28;20048;-64
2023/11/19 08:09:42;;;;;;;1999.90;999.90;;;;;;;15.34;31.43;96238.81;5116613;28;20051;-63
2023/11/19 08:12:10;;;;;;;1999.90;999.90;;;;;;;15.26;31.30;96244.56;5116672;28;20130;-64
2023/11/19 08:14:39;;;;;;;1999.90;999.90;;;;;;;14.20;32.23;96242.00;5116579;28;20094;-62
2023/11/19 08:17:07;;;;;;;1999.90;999.90;;;;;;;13.76;33.00;96247.91;5116546;28;20050;-65
2023/11/19 08:19:36;;;;;;;1999.90;999.90;;;;;;;13.33;33.71;96247.63;5116536;28;20108;-62
2023/11/19 08:22:03;;;;;;;1999.90;999.90;;;;;;;12.66;35.19;96251.03;5116502;28;20073;-63
2023/11/19 08:24:32;;;;;;;1999.90;999.90;;;;;;;12.72;35.10;96241.09;5116369;27;20390;-64
2023/11/19 08:27:00;;;;;;;1999.90;999.90;;;;;;;12.52;35.77;96234.22;5116413;28;20039;-66
2023/11/19 08:29:29;;;;;;;1999.90;999.90;;;;;;;11.90;36.47;96224.13;5116165;28;20048;-64
2023/11/19 08:31:58;;;;;;;1999.90;999.90;;;;;;;11.90;37.83;96217.13;5116319;28;20469;-62
2023/11/19 08:34:26;;;;;;;1999.90;999.90;;;;;;;11.80;37.56;96213.25;5116339;28;20423;-64
2023/11/19 08:36:54;;;;;;;1999.90;999.90;;;;;;;11.41;37.47;96215.06;5116235;28;20074;-64
2023/11/19 08:39:22;;;;;;;1999.90;999.90;;;;;;;10.55;38.87;96218.84;5116080;28;20071;-64
2023/11/19 08:41:50;;;;;;;1999.90;999.90;;;;;;;10.33;40.54;96217.97;5115987;28;20469;-65
2023/11/19 08:44:19;;;;;;;1999.90;999.90;;;;;;;10.25;40.47;96220.06;5115360;28;20047;-67
2023/11/19 08:46:54;;;;;;;1999.90;999.90;;;;;;;10.08;40.49;96232.06;5115942;28;20048;-62
2023/11/19 08:49:24;;;;;;;1999.90;999.90;;;;;;;9.96;41.33;96216.88;5116036;28;20126;-62
2023/11/19 08:51:52;;;;;;;1999.90;999.90;;;;;;;9.98;41.09;96220.28;5115905;28;20484;-65
2023/11/19 08:54:21;;;;;;;1999.90;999.90;;;;;;;9.73;41.87;96210.84;5115913;28;20044;-64
2023/11/19 08:56:48;;;;;;;1999.90;999.90;;;;;;;9.72;42.54;96219.56;5115735;28;20048;-64
2023/11/19 08:59:18;;;;;;;1999.90;999.90;;;;;;;9.83;41.64;96220.00;5115707;28;20051;-62
2023/11/19 09:01:46;;;;;;;1999.90;999.90;;;;;;;9.73;41.91;96218.66;5115748;28;20078;-65
2023/11/19 09:04:14;;;;;;;1999.90;999.90;;;;;;;9.67;42.64;96229.34;5115479;28;20079;-63
2023/11/19 09:06:43;;;;;;;1999.90;999.90;;;;;;;9.67;41.50;96226.75;5115309;28;20382;-65
2023/11/19 09:09:11;;;;;;;1999.90;999.90;;;;;;;9.60;42.46;96226.97;5115597;28;20044;-64
2023/11/19 09:11:38;;;;;;;1999.90;999.90;;;;;;;9.59;41.94;96229.66;5115519;28;20044;-66
2023/11/19 09:14:08;;;;;;;1999.90;999.90;;;;;;;9.66;42.64;96217.22;5115394;28;20477;-66
2023/11/19 09:16:46;;;;;;;1999.90;999.90;;;;;;;9.49;42.00;96213.50;5115506;28;20122;-63
2023/11/19 09:19:17;;;;;;;1999.90;999.90;;;;;;;9.36;42.56;96205.28;5115486;28;20043;-62
2023/11/19 09:21:47;;;;;;;1999.90;999.90;;;;;;;9.22;42.98;96184.94;5115313;28;20051;-62
2023/11/19 09:24:15;;;;;;;1999.90;999.90;;;;;;;9.29;43.86;96183.78;5115280;28;20535;-64
2023/11/19 09:26:42;;;;;;;1999.90;999.90;;;;;;;9.51;43.03;96171.66;5115308;28;20050;-61
2023/11/19 09:29:14;;;;;;;1999.90;999.90;;;;;;;9.48;42.47;96162.16;5115145;28;20435;-64
2023/11/19 09:31:42;;;;;;;1999.90;999.90;;;;;;;9.41;42.14;96169.41;5114951;28;20048;-63
2023/11/19 09:34:12;;;;;;;1999.90;999.90;;;;;;;9.28;43.65;96155.13;5115084;28;20100;-65
2023/11/19 09:36:43;;;;;;;1999.90;999.90;;;;;;;9.37;42.65;96159.16;5115057;28;20050;-64
2023/11/19 09:39:18;;;;;;;1999.90;999.90;;;;;;;9.05;43.05;96144.69;5115021;28;20065;-61
2023/11/19 09:41:47;;;;;;;1999.90;999.90;;;;;;;9.05;43.90;96154.25;5114314;28;20048;-64
2023/11/19 09:44:18;;;;;;;1999.90;999.90;;;;;;;9.16;43.42;96153.84;5114725;28;20043;-65
2023/11/19 09:46:47;;;;;;;1999.90;999.90;;;;;;;9.06;42.88;96161.19;5114902;28;20052;-65
2023/11/19 09:49:16;;;;;;;1999.90;999.90;;;;;;;9.02;43.60;96164.81;5114747;28;20047;-64
2023/11/19 09:51:43;;;;;;;1999.90;999.90;;;;;;;9.06;43.46;96172.47;5114691;28;20131;-64
2023/11/19 09:54:14;;;;;;;1999.90;999.90;;;;;;;9.14;43.63;96171.31;5114589;28;20043;-63
2023/11/19 09:56:45;;;;;;;1999.90;999.90;;;;;;;9.12;43.47;96175.75;5113854;28;20054;-63
2023/11/19 09:59:12;;;;;;;1999.90;999.90;;;;;;;9.15;43.40;96178.25;5114644;28;20051;-61
2023/11/19 10:01:41;;;;;;;1999.90;999.90;;;;;;;9.06;42.61;96182.06;5114462;28;20083;-62
2023/11/19 10:04:09;;;;;;;1999.90;999.90;;;;;;;9.17;43.06;96185.09;5114391;28;20408;-64
2023/11/19 10:06:37;;;;;;;1999.90;999.90;;;;;;;9.15;43.72;96186.09;5114166;28;20047;-64
2023/11/19 10:09:06;;;;;;;1999.90;999.90;;;;;;;9.00;43.30;96190.13;5114395;28;20087;-65
2023/11/19 10:11:35;;;;;;;1999.90;999.90;;;;;;;9.14;43.36;96200.03;5114406;28;20047;-62
2023/11/19 10:14:04;;;;;;;1999.90;999.90;;;;;;;9.22;43.29;96200.59;5114283;28;20083;-64
2023/11/19 10:16:32;;;;;;;1999.90;999.90;;;;;;;9.23;42.42;96202.28;5114263;28;20074;-65
2023/11/19 10:19:10;;;;;;;1999.90;999.90;;;;;;;9.13;43.13;96199.19;5114009;28;20051;-63
2023/11/19 10:21:38;;;;;;;1999.90;999.90;;;;;;;9.04;42.61;96191.69;5113970;28;20412;-62
2023/11/19 10:24:07;;;;;;;1999.90;999.90;;;;;;;9.05;43.62;96188.16;5114179;28;20505;-65
2023/11/19 10:26:38;;;;;;;1999.90;999.90;;;;;;;9.12;42.94;96192.25;5114140;28;20058;-64
2023/11/19 10:29:09;;;;;;;1999.90;999.90;;;;;;;9.13;42.50;96186.13;5113941;28;20481;-64
2023/11/19 10:31:40;;;;;;;1999.90;999.90;;;;;;;9.23;42.71;96174.44;5114036;28;20043;-65
2023/11/19 10:34:26;;;;;;;1999.90;999.90;;;;;;;9.10;42.22;96163.59;5113745;28;20116;-62
2023/11/19 10:36:53;;;;;;;1999.90;999.90;;;;;;;8.96;43.42;96165.88;5113908;28;20128;-61
2023/11/19 10:39:23;;;;;;;1999.90;999.90;;;;;;;8.95;43.26;96158.97;5113802;28;20500;-65
2023/11/19 10:41:52;;;;;;;1999.90;999.90;;;;;;;8.88;43.39;96165.34;5113835;28;20039;-65
2023/11/19 10:44:40;;;;;;;1999.90;999.90;;;;;;;8.94;43.26;96165.13;5113756;27;20052;-61
2023/11/19 10:47:11;;;;;;;1999.90;999.90;;;;;;;8.79;43.29;96151.72;5079850;28;20063;-63
2023/11/19 10:49:40;;;;;;;1999.90;999.90;;;;;;;8.62;43.76;96154.09;5113741;28;20040;-63
2023/11/19 10:52:10;;;;;;;1999.90;999.90;;;;;;;8.59;43.57;96142.91;5113725;28;20492;-63
2023/11/19 10:54:42;;;;;;;1999.90;999.90;;;;;;;8.59;43.34;96158.53;5113738;28;20509;-62
2023/11/19 10:57:19;;;;;;;1999.90;999.90;;;;;;;8.65;44.25;96154.84;5113708;28;20048;-64
2023/11/19 10:59:47;;;;;;;1999.90;999.90;;;;;;;8.75;43.68;96163.19;5113626;28;20073;-62
2023/11/19 11:02:23;;;;;;;1999.90;999.90;;;;;;;8.91;43.56;96157.41;5113502;28;20052;-62
2023/11/19 11:04:52;;;;;;;1999.90;999.90;;;;;;;9.00;42.50;96174.47;5113404;28;20047;-64
2023/11/19 11:07:24;;;;;;;1999.90;999.90;;;;;;;8.91;42.01;96176.50;5113053;28;20047;-63